Time;durP1;ratioP1;P1;durP2;ratioP2;P2;SDS_P1;SDS_P2;PMS_P1;PMS_P2;Temp;Humidity;BMP_temperature;BMP_pressure;BME280_temperature;BME280_humidity;BME280_pressure;Samples;Min_cycle;Max_cycle;Signal;HPM_P1;HPM_P2
2023/08/08 00:00:47;;;;;;;0.32;0.28;;;12.50;99.90;;;;;;5052269;28;20455;-85
2023/08/08 00:03:12;;;;;;;2.13;1.15;;;12.50;99.90;;;;;;5052449;28;20621;-85
2023/08/08 00:05:38;;;;;;;0.00;0.00;;;12.40;99.90;;;;;;5052070;28;20049;-85
2023/08/08 00:08:04;;;;;;;0.00;0.00;;;13.70;99.90;;;;;;5036124;28;20091;-85
2023/08/08 00:10:30;;;;;;;3.13;1.17;;;12.40;99.90;;;;;;5052647;28;20408;-85
2023/08/08 00:12:56;;;;;;;0.00;0.00;;;12.50;99.90;;;;;;5027165;28;20048;-85
2023/08/08 00:15:21;;;;;;;0.47;0.10;;;12.50;99.90;;;;;;5036437;28;20049;-86
2023/08/08 00:17:47;;;;;;;0.00;0.00;;;12.50;99.90;;;;;;5036090;28;20045;-85
2023/08/08 00:20:13;;;;;;;0.00;0.00;;;12.50;99.90;;;;;;5053024;28;20051;-86
2023/08/08 00:22:39;;;;;;;0.17;0.17;;;12.60;99.90;;;;;;5036361;28;20049;-86
2023/08/08 00:25:04;;;;;;;0.20;0.20;;;12.60;99.90;;;;;;5052804;28;20048;-86
2023/08/08 00:27:30;;;;;;;0.10;0.03;;;12.60;99.90;;;;;;5035653;28;20055;-86
2023/08/08 00:29:56;;;;;;;0.95;0.73;;;12.70;99.90;;;;;;5051173;28;20052;-85
2023/08/08 00:32:21;;;;;;;0.10;0.10;;;13.30;99.90;;;;;;5051523;28;20539;-85
2023/08/08 00:34:47;;;;;;;0.00;0.00;;;12.70;99.90;;;;;;5054530;28;20092;-86
2023/08/08 00:37:13;;;;;;;0.00;0.00;;;12.70;99.90;;;;;;5036578;28;20388;-86
2023/08/08 00:39:42;;;;;;;0.05;0.00;;;12.70;99.90;;;;;;5036560;28;20103;-86
2023/08/08 00:42:09;;;;;;;1.50;0.80;;;12.70;99.90;;;;;;5036918;28;20061;-86
2023/08/08 00:44:34;;;;;;;1.35;0.45;;;12.60;99.90;;;;;;5053162;28;20138;-85
2023/08/08 00:47:00;;;;;;;3.65;0.32;;;13.10;99.90;;;;;;5053182;28;20085;-86
2023/08/08 00:49:26;;;;;;;0.03;0.00;;;12.50;99.90;;;;;;5052901;28;20053;-85
2023/08/08 00:51:51;;;;;;;1.35;0.43;;;12.50;99.90;;;;;;5052788;28;20076;-85
2023/08/08 00:54:17;;;;;;;0.45;0.38;;;12.50;99.90;;;;;;5036077;28;20078;-86
2023/08/08 00:56:43;;;;;;;0.80;0.20;;;12.50;1.00;;;;;;5035850;28;20045;-85
2023/08/08 00:59:14;;;;;;;0.13;0.13;;;13.50;1.00;;;;;;5054222;28;20056;-85
2023/08/08 01:01:39;;;;;;;0.00;0.00;;;12.50;1.00;;;;;;5036118;28;20053;-86
2023/08/08 01:04:06;;;;;;;0.05;0.05;;;12.40;1.00;;;;;;5053284;28;20051;-85
2023/08/08 01:06:51;;;;;;;1.40;0.60;;;12.40;1.00;;;;;;5037054;28;20092;-86
2023/08/08 01:09:35;;;;;;;0.03;0.03;;;12.40;1.00;;;;;;5052719;28;20055;-85
2023/08/08 01:12:02;;;;;;;0.00;0.00;;;12.40;1.00;;;;;;5036633;28;20067;-86
2023/08/08 01:14:30;;;;;;;0.00;0.00;;;12.30;1.00;;;;;;5036000;28;20049;-85
2023/08/08 01:16:59;;;;;;;4.53;0.98;;;12.30;1.00;;;;;;5034194;28;20430;-85
2023/08/08 01:19:28;;;;;;;0.30;0.30;;;13.40;1.00;;;;;;5051641;28;20045;-85
2023/08/08 01:21:57;;;;;;;0.30;0.17;;;13.10;25.20;;;;;;5050733;28;20542;-86
2023/08/08 01:24:27;;;;;;;0.25;0.15;;;12.40;33.00;;;;;;5051079;28;20115;-86
2023/08/08 01:26:53;;;;;;;0.52;0.30;;;12.40;29.70;;;;;;5050239;28;20056;-86
2023/08/08 01:29:19;;;;;;;0.20;0.13;;;11.80;38.60;;;;;;5033477;28;20144;-85
2023/08/08 01:31:45;;;;;;;0.47;0.15;;;12.40;66.40;;;;;;5050057;28;20108;-86
2023/08/08 01:34:11;;;;;;;0.32;0.32;;;12.30;50.30;;;;;;5032915;28;20080;-86
2023/08/08 01:36:58;;;;;;;0.10;0.10;;;12.30;81.10;;;;;;5037058;28;20056;-86
2023/08/08 01:39:30;;;;;;;0.32;0.28;;;12.60;86.10;;;;;;5033122;28;20099;-85
2023/08/08 01:41:58;;;;;;;0.10;0.10;;;12.20;92.40;;;;;;5017331;28;20092;-85
2023/08/08 01:44:25;;;;;;;0.30;0.20;;;12.70;92.80;;;;;;5037425;28;20566;-85
2023/08/08 01:46:52;;;;;;;0.30;0.30;;;12.50;95.80;;;;;;5035218;28;20380;-85
2023/08/08 01:49:18;;;;;;;0.28;0.22;;;12.10;99.90;;;;;;5028994;28;20533;-85
2023/08/08 01:51:44;;;;;;;2.35;0.35;;;12.20;99.90;;;;;;5056700;28;20067;-85
2023/08/08 01:54:09;;;;;;;0.00;0.00;;;12.00;99.90;;;;;;5054887;28;20045;-85
2023/08/08 01:56:35;;;;;;;0.95;0.65;;;12.10;99.90;;;;;;5056603;28;20183;-85
2023/08/08 01:59:01;;;;;;;0.05;0.05;;;12.20;99.90;;;;;;5037174;28;20171;-85
2023/08/08 02:01:27;;;;;;;0.85;0.40;;;12.20;99.90;;;;;;5054280;28;20049;-85
2023/08/08 02:03:52;;;;;;;0.10;0.10;;;12.30;99.90;;;;;;5054058;28;20059;-85
2023/08/08 02:06:18;;;;;;;0.22;0.22;;;12.40;99.90;;;;;;5038245;28;20079;-86
2023/08/08 02:08:45;;;;;;;0.00;0.00;;;13.70;99.90;;;;;;5037754;28;20063;-86
2023/08/08 02:11:10;;;;;;;0.00;0.00;;;12.90;99.90;;;;;;5037843;28;20052;-85
2023/08/08 02:13:36;;;;;;;0.10;0.10;;;12.50;99.90;;;;;;5037927;28;20483;-86
2023/08/08 02:16:02;;;;;;;0.40;0.30;;;12.60;99.90;;;;;;5054082;28;20095;-85
2023/08/08 02:18:27;;;;;;;0.00;0.00;;;12.50;99.90;;;;;;5037423;28;20045;-85
2023/08/08 02:20:53;;;;;;;0.35;0.10;;;12.80;99.90;;;;;;5037621;28;20080;-86
2023/08/08 02:23:19;;;;;;;13.45;0.90;;;13.20;99.90;;;;;;5054527;28;20091;-85
2023/08/08 02:25:44;;;;;;;1.85;0.93;;;12.70;99.90;;;;;;5053547;28;20044;-85
2023/08/08 02:28:10;;;;;;;0.17;0.17;;;12.80;99.90;;;;;;5054694;28;20053;-85
2023/08/08 02:30:36;;;;;;;0.10;0.10;;;12.70;99.90;;;;;;5038451;28;20052;-85
2023/08/08 02:33:01;;;;;;;0.43;0.43;;;12.70;99.90;;;;;;5054900;28;20048;-85
2023/08/08 02:35:27;;;;;;;10.63;1.65;;;12.80;99.90;;;;;;5054835;28;20166;-85
2023/08/08 02:37:53;;;;;;;0.43;0.25;;;12.80;99.90;;;;;;5037736;28;20526;-85
2023/08/08 02:40:18;;;;;;;0.10;0.10;;;12.80;90.90;;;;;;5055214;28;20103;-85
2023/08/08 02:42:44;;;;;;;0.00;0.00;;;12.80;52.90;;;;;;5056954;28;20393;-85
2023/08/08 02:45:10;;;;;;;0.05;0.05;;;12.80;29.70;;;;;;5056274;28;20041;-85
2023/08/08 02:47:35;;;;;;;0.35;0.35;;;12.80;28.80;;;;;;5040950;28;20052;-86
2023/08/08 02:50:01;;;;;;;0.10;0.10;;;12.70;3.60;;;;;;5057503;28;20079;-86
2023/08/08 02:52:27;;;;;;;0.35;0.35;;;12.70;1.00;;;;;;5044002;28;20049;-85
2023/08/08 02:54:53;;;;;;;0.00;0.00;;;12.60;1.00;;;;;;5064890;28;20052;-85
2023/08/08 02:57:18;;;;;;;2.17;0.63;;;12.60;44.80;;;;;;5065696;28;20071;-85
2023/08/08 02:59:44;;;;;;;0.00;0.00;;;12.60;46.90;;;;;;5065111;28;20073;-85
2023/08/08 03:02:10;;;;;;;0.08;0.05;;;12.60;50.20;;;;;;5068262;28;20035;-85
2023/08/08 03:04:35;;;;;;;0.63;0.47;;;12.70;57.40;;;;;;5068758;28;20041;-85
2023/08/08 03:07:03;;;;;;;0.25;0.25;;;13.40;29.80;;;;;;5066327;28;20041;-85
2023/08/08 03:09:30;;;;;;;0.00;0.00;;;14.10;32.60;;;;;;5066923;28;20057;-85
2023/08/08 03:11:55;;;;;;;0.10;0.10;;;12.80;9.60;;;;;;5064295;28;20049;-86
2023/08/08 03:14:21;;;;;;;1.20;0.45;;;12.80;1.00;;;;;;5049848;28;20040;-85
2023/08/08 03:16:47;;;;;;;1.00;0.52;;;13.10;1.00;;;;;;5067492;28;20064;-84
2023/08/08 03:19:12;;;;;;;0.10;0.10;;;12.60;51.80;;;;;;5066119;28;20060;-85
2023/08/08 03:21:38;;;;;;;0.20;0.20;;;13.10;22.00;;;;;;5067025;28;20064;-85
2023/08/08 03:24:04;;;;;;;0.00;0.00;;;12.50;66.40;;;;;;5065302;28;20049;-85
2023/08/08 03:26:30;;;;;;;0.03;0.03;;;12.50;95.00;;;;;;5040944;28;20059;-85
2023/08/08 03:28:56;;;;;;;0.05;0.05;;;13.40;97.90;;;;;;5056399;28;20120;-86
2023/08/08 03:31:21;;;;;;;0.10;0.10;;;13.30;99.90;;;;;;5039134;28;20071;-85
2023/08/08 03:33:47;;;;;;;0.28;0.28;;;12.50;99.90;;;;;;5038660;28;20056;-85
2023/08/08 03:36:15;;;;;;;1.95;0.65;;;13.20;99.90;;;;;;5055688;28;20053;-86
2023/08/08 03:38:46;;;;;;;0.32;0.32;;;12.40;99.90;;;;;;5056752;28;20662;-85
2023/08/08 03:41:13;;;;;;;0.08;0.08;;;12.40;99.90;;;;;;5038637;28;20064;-86
2023/08/08 03:43:39;;;;;;;0.47;0.20;;;12.40;99.90;;;;;;5054500;28;20044;-85
2023/08/08 03:46:05;;;;;;;2.80;0.80;;;12.30;99.90;;;;;;5053315;28;20108;-85
2023/08/08 03:48:31;;;;;;;0.00;0.00;;;12.40;99.90;;;;;;5053204;28;20072;-85
2023/08/08 03:50:56;;;;;;;0.00;0.00;;;12.30;99.90;;;;;;5054091;28;20507;-85
2023/08/08 03:53:22;;;;;;;0.38;0.38;;;12.20;99.90;;;;;;5054076;28;20045;-85
2023/08/08 03:55:48;;;;;;;0.30;0.15;;;12.20;99.90;;;;;;5053620;28;20148;-85
2023/08/08 03:58:13;;;;;;;0.20;0.20;;;12.30;99.90;;;;;;5053785;28;20048;-86
2023/08/08 04:00:45;;;;;;;0.10;0.10;;;12.30;99.90;;;;;;5052496;28;20045;-85
2023/08/08 04:03:15;;;;;;;0.15;0.15;;;13.50;99.90;;;;;;5036340;28;20045;-85
2023/08/08 04:05:48;;;;;;;2.50;1.48;;;12.30;99.90;;;;;;5053115;28;20536;-85
2023/08/08 04:08:15;;;;;;;0.00;0.00;;;12.40;99.90;;;;;;5039798;28;20056;-87
2023/08/08 04:10:41;;;;;;;0.00;0.00;;;12.50;99.90;;;;;;5056973;28;20052;-88
2023/08/08 04:13:07;;;;;;;0.00;0.00;;;12.40;99.90;;;;;;5057261;28;20044;-88
2023/08/08 04:15:32;;;;;;;0.65;0.63;;;13.70;99.90;;;;;;5058387;28;20045;-87
2023/08/08 04:17:58;;;;;;;0.00;0.00;;;12.80;99.90;;;;;;5050145;28;20116;-87
2023/08/08 04:20:24;;;;;;;0.03;0.03;;;12.30;99.90;;;;;;5046726;28;20091;-87
2023/08/08 04:22:49;;;;;;;0.00;0.00;;;12.30;99.90;;;;;;5045844;28;20064;-86
2023/08/08 04:25:15;;;;;;;3.03;0.20;;;12.30;99.90;;;;;;5046434;28;20037;-86
2023/08/08 04:27:41;;;;;;;0.00;0.00;;;13.40;99.90;;;;;;5043402;28;20049;-86
2023/08/08 04:30:07;;;;;;;1.45;1.10;;;12.30;99.90;;;;;;5044144;28;20072;-86
2023/08/08 04:32:33;;;;;;;0.03;0.03;;;12.30;99.90;;;;;;5045531;28;20049;-86
2023/08/08 04:34:59;;;;;;;0.00;0.00;;;12.40;99.90;;;;;;5045367;28;20083;-86
2023/08/08 04:37:25;;;;;;;0.00;0.00;;;12.40;99.90;;;;;;5028252;28;20072;-87
2023/08/08 04:39:50;;;;;;;0.47;0.45;;;12.40;99.90;;;;;;5047207;28;20942;-87
2023/08/08 04:42:16;;;;;;;0.32;0.25;;;12.50;99.90;;;;;;5047321;28;20088;-87
2023/08/08 04:44:42;;;;;;;1.65;0.30;;;12.50;99.90;;;;;;5047652;28;20045;-87
2023/08/08 04:47:07;;;;;;;0.38;0.38;;;12.50;99.90;;;;;;5046373;28;20041;-87
2023/08/08 04:49:33;;;;;;;0.35;0.25;;;12.50;99.90;;;;;;5045639;28;20044;-87
2023/08/08 04:51:59;;;;;;;0.00;0.00;;;12.50;99.90;;;;;;5046053;28;20056;-87
2023/08/08 04:54:24;;;;;;;0.65;0.45;;;12.40;99.90;;;;;;5047362;28;20091;-88
2023/08/08 04:56:50;;;;;;;12.20;0.25;;;12.30;99.90;;;;;;5047205;28;20133;-87
2023/08/08 04:59:18;;;;;;;0.28;0.10;;;12.30;99.90;;;;;;5030921;28;20463;-87
2023/08/08 05:01:44;;;;;;;0.22;0.20;;;12.20;99.90;;;;;;5045990;28;20163;-87
2023/08/08 05:04:09;;;;;;;0.05;0.05;;;11.90;99.90;;;;;;5030166;28;20087;-87
2023/08/08 05:07:06;;;;;;;0.73;0.65;;;13.00;99.90;;;;;;5045858;28;20435;-89
2023/08/08 05:09:32;;;;;;;0.10;0.10;;;12.10;99.90;;;;;;5046228;28;20129;-87
2023/08/08 05:11:58;;;;;;;0.08;0.08;;;12.00;99.90;;;;;;5028909;28;20135;-87
2023/08/08 05:14:26;;;;;;;0.45;0.38;;;12.10;99.90;;;;;;5028678;28;20049;-87
2023/08/08 05:16:57;;;;;;;0.00;0.00;;;12.10;99.90;;;;;;5010877;28;20061;-87
2023/08/08 05:19:24;;;;;;;0.00;0.00;;;12.40;99.90;;;;;;5013106;28;20057;-87
2023/08/08 05:21:52;;;;;;;0.00;0.00;;;12.20;99.90;;;;;;5029636;28;20088;-87
2023/08/08 05:24:22;;;;;;;2.55;0.38;;;11.10;99.90;;;;;;5030363;28;20084;-87
2023/08/08 05:26:48;;;;;;;0.00;0.00;;;12.20;99.90;;;;;;5013776;28;20053;-87
2023/08/08 05:29:14;;;;;;;0.32;0.32;;;12.20;99.90;;;;;;5031473;28;20484;-87
2023/08/08 05:31:39;;;;;;;0.22;0.20;;;12.30;99.90;;;;;;5014370;28;20064;-87
2023/08/08 05:34:05;;;;;;;0.13;0.13;;;12.40;99.90;;;;;;5012803;28;20088;-87
2023/08/08 05:36:31;;;;;;;0.00;0.00;;;12.40;99.90;;;;;;5029060;28;20622;-87
2023/08/08 05:38:56;;;;;;;0.20;0.20;;;12.50;99.90;;;;;;5025342;28;20129;-87
2023/08/08 05:41:22;;;;;;;0.00;0.00;;;13.80;99.90;;;;;;5036215;28;20037;-87
2023/08/08 05:43:48;;;;;;;0.17;0.08;;;12.50;99.90;;;;;;5043892;28;20075;-87
2023/08/08 05:46:13;;;;;;;0.00;0.00;;;13.80;99.90;;;;;;5027422;28;20103;-87
2023/08/08 05:48:39;;;;;;;0.75;0.75;;;12.70;99.90;;;;;;5044123;28;20689;-87
2023/08/08 05:51:05;;;;;;;0.00;0.00;;;13.20;99.90;;;;;;5027396;28;20148;-87
2023/08/08 05:53:32;;;;;;;0.10;0.10;;;12.80;99.90;;;;;;5043997;28;20045;-87
2023/08/08 05:55:58;;;;;;;0.00;0.00;;;12.90;99.90;;;;;;5046317;28;20047;-87
2023/08/08 05:58:23;;;;;;;1.45;0.60;;;12.90;99.90;;;;;;5045087;28;20037;-87
2023/08/08 06:00:50;;;;;;;0.00;0.00;;;13.00;99.90;;;;;;5044767;28;20144;-87
2023/08/08 06:03:15;;;;;;;0.13;0.10;;;13.00;99.90;;;;;;5045387;28;20040;-87
2023/08/08 06:05:41;;;;;;;0.40;0.20;;;13.90;99.90;;;;;;5028331;28;20052;-87
2023/08/08 06:08:11;;;;;;;0.00;0.00;;;13.30;99.90;;;;;;5044646;28;20051;-86
2023/08/08 06:10:37;;;;;;;0.10;0.10;;;13.80;99.90;;;;;;5045062;28;20166;-87
2023/08/08 06:13:03;;;;;;;0.30;0.20;;;14.60;99.90;;;;;;5044956;28;20507;-87
2023/08/08 06:15:28;;;;;;;1.23;0.82;;;15.30;99.90;;;;;;5044731;28;20082;-87
2023/08/08 06:17:54;;;;;;;0.30;0.20;;;16.80;99.90;;;;;;5046314;28;20072;-87
2023/08/08 06:20:20;;;;;;;0.93;0.85;;;16.40;88.90;;;;;;5028178;28;20507;-87
2023/08/08 06:22:46;;;;;;;2.55;0.70;;;16.80;1.00;;;;;;5044463;28;20537;-88
2023/08/08 06:25:11;;;;;;;3.33;0.95;;;17.30;1.00;;;;;;5044312;28;20052;-87
2023/08/08 06:27:37;;;;;;;0.00;0.00;;;17.60;66.00;;;;;;5046367;28;20041;-87
2023/08/08 06:30:03;;;;;;;0.65;0.30;;;17.80;61.70;;;;;;5045298;28;20043;-87
2023/08/08 06:32:29;;;;;;;1.45;0.52;;;17.90;1.00;;;;;;5028170;28;20140;-87
2023/08/08 06:34:55;;;;;;;0.10;0.10;;;18.10;1.00;;;;;;5044522;28;20131;-87
2023/08/08 06:37:20;;;;;;;1.25;0.52;;;18.30;1.00;;;;;;5044690;28;20055;-88
2023/08/08 06:39:46;;;;;;;0.08;0.05;;;18.50;99.90;;;;;;5045785;28;20044;-87
2023/08/08 06:42:12;;;;;;;0.50;0.13;;;18.80;1.00;;;;;;5044158;28;20040;-87
2023/08/08 06:44:42;;;;;;;0.50;0.32;;;19.00;99.90;;;;;;5027578;28;20475;-87
2023/08/08 06:47:08;;;;;;;0.00;0.00;;;19.20;99.90;;;;;;5043832;28;20045;-86
2023/08/08 06:49:34;;;;;;;0.00;0.00;;;19.50;1.00;;;;;;5043406;28;20036;-86
2023/08/08 06:52:02;;;;;;;20.20;0.98;;;19.50;1.00;;;;;;5027406;28;20438;-86
2023/08/08 06:54:28;;;;;;;0.15;0.10;;;19.60;99.90;;;;;;5043427;28;20043;-86
2023/08/08 06:56:56;;;;;;;0.00;0.00;;;20.00;99.90;;;;;;5043420;28;20041;-86
2023/08/08 06:59:22;;;;;;;0.00;0.00;;;19.80;99.90;;;;;;5044582;28;20438;-86
2023/08/08 07:01:48;;;;;;;0.05;0.05;;;19.80;99.90;;;;;;5043249;28;20048;-86
2023/08/08 07:04:14;;;;;;;0.25;0.25;;;20.10;99.90;;;;;;5043568;28;20041;-88
2023/08/08 07:06:41;;;;;;;0.00;0.00;;;20.40;99.90;;;;;;5044987;28;20412;-88
2023/08/08 07:09:10;;;;;;;0.00;0.00;;;20.50;99.90;;;;;;5044655;28;20107;-88
2023/08/08 07:11:38;;;;;;;0.08;0.00;;;20.50;99.90;;;;;;5028756;28;20044;-89
2023/08/08 07:14:05;;;;;;;0.20;0.17;;;20.50;99.90;;;;;;5044097;28;20055;-89
2023/08/08 07:16:31;;;;;;;0.35;0.28;;;20.40;98.70;;;;;;5045458;28;20123;-88
2023/08/08 07:18:57;;;;;;;0.00;0.00;;;20.60;55.10;;;;;;5029437;28;20131;-88
2023/08/08 07:21:26;;;;;;;0.00;0.00;;;20.70;27.10;;;;;;5045782;28;20053;-88
2023/08/08 07:23:52;;;;;;;0.75;0.30;;;21.20;44.20;;;;;;5028780;28;20049;-88
2023/08/08 07:26:18;;;;;;;0.15;0.05;;;21.20;1.00;;;;;;5011340;28;20045;-89
2023/08/08 07:28:44;;;;;;;0.00;0.00;;;21.00;1.00;;;;;;5043934;28;20672;-89
2023/08/08 07:31:09;;;;;;;0.10;0.10;;;21.20;1.00;;;;;;5026824;28;20265;-88
2023/08/08 07:33:36;;;;;;;0.47;0.32;;;21.40;1.00;;;;;;5043202;28;20052;-89
2023/08/08 07:36:02;;;;;;;0.00;0.00;;;22.30;1.00;;;;;;5025600;28;20045;-88
2023/08/08 07:38:27;;;;;;;0.00;0.00;;;22.10;1.00;;;;;;5042536;28;20098;-88
2023/08/08 07:40:54;;;;;;;0.08;0.08;;;21.90;1.00;;;;;;5042583;28;20036;-89
2023/08/08 07:43:40;;;;;;;0.00;0.00;;;21.40;1.00;;;;;;5026737;28;20049;-88
2023/08/08 07:46:09;;;;;;;2.63;0.75;;;20.70;1.00;;;;;;5042935;28;20041;-89
2023/08/08 07:48:37;;;;;;;0.50;0.15;;;20.00;1.00;;;;;;5024134;28;20084;-89
2023/08/08 07:51:05;;;;;;;0.00;0.00;;;19.70;1.00;;;;;;5024085;28;20045;-89
2023/08/08 07:53:31;;;;;;;0.00;0.00;;;19.40;99.90;;;;;;5008887;28;20045;-89
2023/08/08 07:55:59;;;;;;;0.00;0.00;;;19.40;99.90;;;;;;5010147;28;20045;-88
2023/08/08 07:58:29;;;;;;;0.47;0.28;;;19.30;99.90;;;;;;5009203;28;20805;-88
2023/08/08 08:01:03;;;;;;;0.00;0.00;;;19.50;1.00;;;;;;5009431;28;20059;-88
2023/08/08 08:03:35;;;;;;;0.75;0.47;;;20.30;1.00;;;;;;5023955;28;20099;-89
2023/08/08 08:06:11;;;;;;;;;;;;;;;;;;;;;
2023/08/08 08:08:37;;;;;;;0.00;0.00;;;20.60;1.00;;;;;;5022619;28;20057;-89
2023/08/08 08:11:08;;;;;;;0.13;0.10;;;19.20;1.00;;;;;;5022411;28;20476;-89
2023/08/08 08:13:34;;;;;;;0.00;0.00;;;19.50;1.00;;;;;;5006264;28;20049;-88
2023/08/08 08:16:00;;;;;;;0.00;0.00;;;19.90;1.00;;;;;;5006189;28;20057;-89
2023/08/08 08:18:33;;;;;;;0.00;0.00;;;19.90;99.90;;;;;;5013340;28;20097;-89
2023/08/08 08:21:13;;;;;;;1.00;0.45;;;19.80;1.00;;;;;;5041430;28;20171;-89
2023/08/08 08:23:41;;;;;;;0.17;0.17;;;19.80;1.00;;;;;;5043243;28;20136;-89
2023/08/08 08:26:07;;;;;;;0.15;0.15;;;19.60;1.00;;;;;;5026954;28;20136;-89
2023/08/08 08:28:33;;;;;;;0.00;0.00;;;19.80;1.00;;;;;;5043703;28;20395;-89
2023/08/08 08:31:08;;;;;;;0.00;0.00;;;19.10;99.90;;;;;;5028771;28;20049;-89
2023/08/08 08:33:41;;;;;;;0.20;0.20;;;20.30;1.00;;;;;;5031095;28;20138;-89
2023/08/08 08:36:12;;;;;;;0.13;0.13;;;21.30;1.00;;;;;;5028628;28;20126;-89
2023/08/08 08:38:48;;;;;;;0.00;0.00;;;20.70;1.00;;;;;;5029277;28;20049;-88
2023/08/08 08:41:27;;;;;;;0.10;0.10;;;20.60;1.00;;;;;;5044118;28;20045;-89
2023/08/08 08:43:54;;;;;;;0.20;0.20;;;20.30;99.90;;;;;;5044490;28;20059;-89
2023/08/08 08:46:22;;;;;;;0.10;0.08;;;20.50;1.00;;;;;;5042309;28;20045;-89
2023/08/08 08:48:50;;;;;;;0.10;0.10;;;20.40;1.00;;;;;;5024964;28;20052;-89
2023/08/08 08:51:17;;;;;;;0.00;0.00;;;20.00;1.00;;;;;;5041340;28;20115;-89
2023/08/08 08:53:46;;;;;;;1.35;0.43;;;20.20;1.00;;;;;;5041927;28;20056;-88
2023/08/08 08:56:16;;;;;;;0.00;0.00;;;19.70;1.00;;;;;;5041934;28;20148;-89
2023/08/08 08:58:42;;;;;;;0.00;0.00;;;19.50;1.00;;;;;;5025586;28;20095;-89
2023/08/08 09:01:09;;;;;;;0.00;0.00;;;19.50;1.00;;;;;;5043008;28;20053;-88
2023/08/08 09:03:36;;;;;;;0.98;0.52;;;20.00;1.00;;;;;;5027296;28;20403;-88
2023/08/08 09:06:02;;;;;;;1.50;0.63;;;20.30;1.00;;;;;;5026624;28;20068;-88
2023/08/08 09:08:29;;;;;;;0.00;0.00;;;20.40;1.00;;;;;;5027254;28;20048;-88
2023/08/08 09:10:56;;;;;;;0.00;0.00;;;20.90;99.90;;;;;;5046839;28;20056;-89
2023/08/08 09:13:22;;;;;;;0.00;0.00;;;19.90;1.00;;;;;;5044751;28;20041;-88
2023/08/08 09:15:49;;;;;;;0.75;0.30;;;19.90;1.00;;;;;;5028709;28;20088;-89
2023/08/08 09:18:17;;;;;;;0.98;0.55;;;19.00;1.00;;;;;;5043427;28;20767;-88
2023/08/08 09:20:53;;;;;;;0.00;0.00;;;19.60;1.00;;;;;;5026749;28;20057;-89
2023/08/08 09:23:18;;;;;;;0.10;0.10;;;20.90;1.00;;;;;;5041901;28;20159;-89
2023/08/08 09:25:44;;;;;;;0.75;0.43;;;21.70;1.00;;;;;;5024288;28;20124;-88
2023/08/08 09:28:10;;;;;;;0.25;0.25;;;21.10;1.00;;;;;;5040889;28;20045;-88
2023/08/08 09:30:35;;;;;;;0.22;0.20;;;19.80;1.00;;;;;;5040897;28;20435;-88
2023/08/08 09:33:02;;;;;;;0.00;0.00;;;19.20;1.00;;;;;;5043449;28;20041;-88
2023/08/08 09:35:30;;;;;;;0.75;0.75;;;19.00;1.00;;;;;;5042383;28;20102;-89
2023/08/08 09:37:56;;;;;;;0.55;0.03;;;19.20;1.00;;;;;;5024778;28;20574;-88
2023/08/08 09:40:23;;;;;;;0.20;0.20;;;19.10;1.00;;;;;;5043034;28;20049;-89
2023/08/08 09:42:53;;;;;;;0.40;0.28;;;19.50;1.00;;;;;;5041801;28;20128;-89
2023/08/08 09:45:19;;;;;;;2.92;0.17;;;20.00;1.00;;;;;;5025181;28;20695;-89
2023/08/08 09:47:46;;;;;;;0.00;0.00;;;20.30;1.00;;;;;;5043633;28;20072;-88
2023/08/08 09:50:15;;;;;;;0.00;0.00;;;20.30;1.00;;;;;;5044869;28;20045;-88
2023/08/08 09:52:42;;;;;;;0.30;0.30;;;20.20;1.00;;;;;;5044899;28;20610;-89
2023/08/08 09:55:07;;;;;;;0.10;0.10;;;20.60;1.00;;;;;;5043779;28;20053;-89
2023/08/08 09:57:34;;;;;;;0.75;0.45;;;20.80;1.00;;;;;;5025659;28;20049;-89
2023/08/08 10:00:05;;;;;;;0.20;0.10;;;20.60;1.00;;;;;;5025870;28;20810;-88
2023/08/08 10:02:32;;;;;;;0.00;0.00;;;20.40;1.00;;;;;;5008634;28;20400;-88
2023/08/08 10:04:58;;;;;;;0.00;0.00;;;20.70;1.00;;;;;;5043781;28;20393;-89
2023/08/08 10:07:24;;;;;;;0.00;0.00;;;20.50;1.00;;;;;;5045322;28;20124;-88
2023/08/08 10:09:51;;;;;;;0.47;0.20;;;20.00;1.00;;;;;;5042919;28;20495;-88
2023/08/08 10:12:17;;;;;;;0.05;0.05;;;20.10;1.00;;;;;;5043645;28;20730;-88
2023/08/08 10:14:44;;;;;;;0.77;0.52;;;20.10;1.00;;;;;;5042650;28;20134;-88
2023/08/08 10:17:15;;;;;;;0.03;0.00;;;20.70;1.00;;;;;;5044746;28;20041;-88
2023/08/08 10:19:49;;;;;;;0.10;0.10;;;20.70;1.00;;;;;;5045357;28;20061;-88
2023/08/08 10:22:14;;;;;;;0.00;0.00;;;20.30;1.00;;;;;;5027869;28;20060;-88
2023/08/08 10:24:40;;;;;;;0.00;0.00;;;19.70;1.00;;;;;;5028480;28;20041;-88
2023/08/08 10:27:06;;;;;;;0.05;0.05;;;19.60;1.00;;;;;;5028917;28;20045;-88
2023/08/08 10:29:33;;;;;;;0.00;0.00;;;19.80;1.00;;;;;;5046429;28;20041;-88
2023/08/08 10:32:01;;;;;;;0.00;0.00;;;20.10;1.00;;;;;;5045869;28;20056;-89
2023/08/08 10:34:43;;;;;;;0.20;0.20;;;20.20;1.00;;;;;;5045176;28;20045;-88
2023/08/08 10:37:15;;;;;;;0.17;0.10;;;20.50;1.00;;;;;;5028501;28;20048;-89
2023/08/08 10:40:00;;;;;;;0.00;0.00;;;20.70;1.00;;;;;;5027829;28;20049;-88
2023/08/08 10:42:27;;;;;;;1.07;0.50;;;20.70;99.90;;;;;;5027371;28;20341;-88
2023/08/08 10:44:55;;;;;;;0.20;0.10;;;21.40;99.90;;;;;;5044568;28;20353;-88
2023/08/08 10:47:27;;;;;;;0.10;0.00;;;21.00;1.00;;;;;;5026183;28;20191;-88
2023/08/08 10:50:03;;;;;;;0.47;0.47;;;21.30;99.90;;;;;;5043062;28;20055;-88
2023/08/08 10:52:31;;;;;;;0.00;0.00;;;21.60;99.90;;;;;;5026144;28;20057;-88
2023/08/08 10:54:57;;;;;;;0.30;0.20;;;21.70;99.90;;;;;;5043111;28;20119;-89
2023/08/08 10:57:27;;;;;;;0.00;0.00;;;21.70;99.90;;;;;;5026640;28;20250;-88
2023/08/08 10:59:54;;;;;;;0.13;0.10;;;21.40;99.90;;;;;;5044014;28;20106;-88
2023/08/08 11:02:21;;;;;;;7.57;0.85;;;20.90;99.90;;;;;;5045606;28;20052;-88
2023/08/08 11:04:48;;;;;;;0.10;0.10;;;20.30;99.90;;;;;;5043799;28;20514;-88
2023/08/08 11:07:15;;;;;;;0.30;0.25;;;20.30;99.90;;;;;;5045002;28;20124;-88
2023/08/08 11:09:42;;;;;;;0.57;0.43;;;20.30;99.90;;;;;;5028233;28;20041;-88
2023/08/08 11:12:14;;;;;;;0.08;0.08;;;20.50;99.90;;;;;;5044543;28;20130;-88
2023/08/08 11:14:39;;;;;;;0.00;0.00;;;20.70;99.90;;;;;;5043949;28;20411;-88
2023/08/08 11:17:05;;;;;;;0.35;0.20;;;21.00;99.90;;;;;;5043955;28;20151;-89
2023/08/08 11:19:32;;;;;;;0.45;0.45;;;21.20;99.90;;;;;;5044457;28;20338;-87
2023/08/08 11:21:57;;;;;;;0.00;0.00;;;21.60;99.90;;;;;;5042219;28;20088;-89
2023/08/08 11:24:23;;;;;;;0.00;0.00;;;22.10;99.90;;;;;;5025197;28;20453;-89
2023/08/08 11:26:49;;;;;;;0.17;0.17;;;22.20;99.90;;;;;;5025181;28;20415;-88
2023/08/08 11:29:15;;;;;;;0.65;0.15;;;21.90;99.90;;;;;;5025072;28;20545;-88
2023/08/08 11:31:41;;;;;;;0.20;0.10;;;21.40;99.90;;;;;;5041859;28;20041;-88
2023/08/08 11:34:09;;;;;;;1.88;0.47;;;21.60;99.90;;;;;;5041091;28;20044;-88
2023/08/08 11:36:36;;;;;;;0.00;0.00;;;21.60;99.90;;;;;;5043600;28;20043;-88
2023/08/08 11:39:09;;;;;;;0.00;0.00;;;21.20;99.90;;;;;;5041971;28;20053;-88
2023/08/08 11:41:36;;;;;;;0.22;0.22;;;20.90;99.90;;;;;;5025922;28;20041;-88
2023/08/08 11:44:03;;;;;;;0.65;0.30;;;21.10;99.90;;;;;;5043549;28;20045;-88
2023/08/08 11:46:30;;;;;;;0.20;0.20;;;21.60;99.90;;;;;;5027528;28;20052;-88
2023/08/08 11:49:02;;;;;;;0.00;0.00;;;22.30;99.90;;;;;;5044782;28;20136;-88
2023/08/08 11:51:28;;;;;;;0.00;0.00;;;22.90;99.90;;;;;;5044809;28;20551;-88
2023/08/08 11:53:54;;;;;;;0.20;0.20;;;23.30;99.90;;;;;;5042402;28;20087;-88
2023/08/08 11:56:21;;;;;;;0.00;0.00;;;24.00;99.90;;;;;;5043502;28;20044;-88
2023/08/08 11:58:51;;;;;;;0.00;0.00;;;24.60;99.90;;;;;;5041587;28;20044;-88
2023/08/08 12:01:20;;;;;;;0.00;0.00;;;25.60;99.90;;;;;;5040370;28;20139;-86
2023/08/08 12:03:46;;;;;;;0.20;0.20;;;25.60;99.90;;;;;;5017044;28;20110;-87
2023/08/08 12:06:16;;;;;;;1.00;0.40;;;25.50;99.90;;;;;;5041463;28;20040;-86
2023/08/08 12:08:46;;;;;;;0.10;0.10;;;25.70;99.90;;;;;;5041901;28;20166;-86
2023/08/08 12:11:15;;;;;;;0.00;0.00;;;25.80;90.40;;;;;;5043031;28;20052;-86
2023/08/08 12:13:43;;;;;;;0.47;0.17;;;25.80;88.30;;;;;;5043157;28;20817;-86
2023/08/08 12:16:10;;;;;;;0.10;0.08;;;25.60;24.80;;;;;;5043302;28;20048;-86
2023/08/08 12:18:37;;;;;;;0.10;0.10;;;25.80;24.30;;;;;;5042329;28;20040;-87
2023/08/08 12:21:05;;;;;;;0.10;0.10;;;25.60;1.80;;;;;;5043126;28;20127;-86
2023/08/08 12:23:30;;;;;;;1.13;0.35;;;24.50;1.00;;;;;;5043067;28;20127;-86
2023/08/08 12:25:57;;;;;;;0.00;0.00;;;23.60;1.00;;;;;;5041056;28;20057;-86
2023/08/08 12:28:23;;;;;;;4.65;0.25;;;22.80;1.00;;;;;;5042629;28;20468;-86
2023/08/08 12:30:49;;;;;;;1.75;0.63;;;23.10;1.00;;;;;;5042792;28;20059;-86
2023/08/08 12:33:14;;;;;;;0.00;0.00;;;22.90;1.00;;;;;;5041472;28;20039;-86
2023/08/08 12:35:40;;;;;;;0.47;0.10;;;22.50;1.00;;;;;;5042572;28;20570;-86
2023/08/08 12:38:05;;;;;;;0.00;0.00;;;23.20;1.00;;;;;;5043154;28;20052;-86
2023/08/08 12:40:31;;;;;;;0.00;0.00;;;24.20;1.00;;;;;;5043334;28;20269;-86
2023/08/08 12:42:57;;;;;;;0.10;0.10;;;24.90;1.00;;;;;;5043299;28;20045;-86
2023/08/08 12:45:23;;;;;;;0.00;0.00;;;25.40;1.00;;;;;;5042231;28;20048;-86
2023/08/08 12:47:49;;;;;;;0.65;0.52;;;25.50;1.00;;;;;;5043342;28;20045;-86
2023/08/08 12:50:15;;;;;;;0.00;0.00;;;25.90;1.00;;;;;;5042556;28;20055;-87